sensor_id;sensor_type;location;lat;lon;timestamp;pressure;altitude;pressure_sealevel;temperature;humidity
12991;BME280;6560;57.692;11.958;2022-07-29T00:00:45;101912.59;;;34.64;77.78
12991;BME280;6560;57.692;11.958;2022-07-29T00:03:12;101836.66;;;34.83;72.62
12991;BME280;6560;57.692;11.958;2022-07-29T00:05:41;101906.41;;;35.70;69.64
12991;BME280;6560;57.692;11.958;2022-07-29T00:08:07;101913.19;;;35.17;70.70
12991;BME280;6560;57.692;11.958;2022-07-29T00:10:33;101895.84;;;36.13;66.54
12991;BME280;6560;57.692;11.958;2022-07-29T00:12:59;101910.00;;;35.74;68.88
12991;BME280;6560;57.692;11.958;2022-07-29T00:15:24;101917.88;;;36.07;66.94
12991;BME280;6560;57.692;11.958;2022-07-29T00:17:50;101902.53;;;35.89;67.08
12991;BME280;6560;57.692;11.958;2022-07-29T00:20:16;101917.28;;;34.39;74.49
12991;BME280;6560;57.692;11.958;2022-07-29T00:22:41;101918.88;;;34.86;73.39
12991;BME280;6560;57.692;11.958;2022-07-29T00:25:07;101914.47;;;34.51;74.37
12991;BME280;6560;57.692;11.958;2022-07-29T00:27:34;101921.00;;;33.94;77.52
12991;BME280;6560;57.692;11.958;2022-07-29T00:29:59;101921.00;;;33.98;79.99
12991;BME280;6560;57.692;11.958;2022-07-29T00:32:25;101926.41;;;33.03;82.65
12991;BME280;6560;57.692;11.958;2022-07-29T00:34:50;101918.22;;;34.29;79.06
12991;BME280;6560;57.692;11.958;2022-07-29T00:37:34;101892.75;;;33.90;77.59
12991;BME280;6560;57.692;11.958;2022-07-29T00:39:59;101923.69;;;34.17;78.54
12991;BME280;6560;57.692;11.958;2022-07-29T00:42:25;101923.56;;;34.58;75.56
12991;BME280;6560;57.692;11.958;2022-07-29T00:44:51;101912.75;;;34.18;73.27
12991;BME280;6560;57.692;11.958;2022-07-29T00:47:16;101919.22;;;33.76;78.28
12991;BME280;6560;57.692;11.958;2022-07-29T00:49:42;101814.34;;;32.78;80.84
12991;BME280;6560;57.692;11.958;2022-07-29T00:52:09;101922.88;;;33.75;78.56
12991;BME280;6560;57.692;11.958;2022-07-29T00:54:35;101798.84;;;33.15;76.78
12991;BME280;6560;57.692;11.958;2022-07-29T00:57:02;101920.94;;;34.29;75.50
12991;BME280;6560;57.692;11.958;2022-07-29T00:59:28;101922.69;;;34.51;74.42
12991;BME280;6560;57.692;11.958;2022-07-29T01:01:54;101922.69;;;34.50;74.74
12991;BME280;6560;57.692;11.958;2022-07-29T01:04:21;101919.13;;;34.31;76.03
12991;BME280;6560;57.692;11.958;2022-07-29T01:06:48;101934.69;;;33.48;80.59
12991;BME280;6560;57.692;11.958;2022-07-29T01:09:14;101916.47;;;33.90;76.50
12991;BME280;6560;57.692;11.958;2022-07-29T01:11:42;101919.06;;;34.42;74.92
12991;BME280;6560;57.692;11.958;2022-07-29T01:14:09;101907.19;;;34.44;73.38
12991;BME280;6560;57.692;11.958;2022-07-29T01:19:49;101928.34;;;33.86;75.83
12991;BME280;6560;57.692;11.958;2022-07-29T01:30:25;101933.81;;;33.81;76.00
12991;BME280;6560;57.692;11.958;2022-07-29T01:32:57;101932.91;;;33.75;77.76
12991;BME280;6560;57.692;11.958;2022-07-29T01:35:44;101931.06;;;33.86;78.51
12991;BME280;6560;57.692;11.958;2022-07-29T01:38:17;101925.59;;;33.83;77.17
12991;BME280;6560;57.692;11.958;2022-07-29T01:40:49;101931.09;;;33.80;75.83
12991;BME280;6560;57.692;11.958;2022-07-29T01:43:21;101929.19;;;34.18;74.92
12991;BME280;6560;57.692;11.958;2022-07-29T01:46:10;101931.00;;;34.18;76.49
12991;BME280;6560;57.692;11.958;2022-07-29T01:48:43;101931.03;;;34.13;73.24
12991;BME280;6560;57.692;11.958;2022-07-29T01:51:23;101937.34;;;32.97;83.00
12991;BME280;6560;57.692;11.958;2022-07-29T01:54:05;101891.66;;;32.53;82.46
12991;BME280;6560;57.692;11.958;2022-07-29T01:56:33;101914.53;;;32.84;82.84
12991;BME280;6560;57.692;11.958;2022-07-29T01:59:01;101925.47;;;32.89;81.99
12991;BME280;6560;57.692;11.958;2022-07-29T02:01:30;101936.34;;;32.70;82.11
12991;BME280;6560;57.692;11.958;2022-07-29T02:03:57;101932.78;;;32.90;79.37
12991;BME280;6560;57.692;11.958;2022-07-29T02:06:25;101909.06;;;32.84;81.85
12991;BME280;6560;57.692;11.958;2022-07-29T02:08:52;101933.69;;;32.81;83.10
12991;BME280;6560;57.692;11.958;2022-07-29T02:11:18;101929.13;;;32.86;84.13
12991;BME280;6560;57.692;11.958;2022-07-29T02:13:45;101939.16;;;32.92;83.87
12991;BME280;6560;57.692;11.958;2022-07-29T02:16:12;101932.84;;;33.08;81.68
12991;BME280;6560;57.692;11.958;2022-07-29T02:18:39;101924.56;;;32.90;81.22
12991;BME280;6560;57.692;11.958;2022-07-29T02:21:07;101938.34;;;33.43;77.50
12991;BME280;6560;57.692;11.958;2022-07-29T02:23:35;101941.09;;;33.46;76.49
12991;BME280;6560;57.692;11.958;2022-07-29T02:26:02;101943.81;;;33.50;75.16
12991;BME280;6560;57.692;11.958;2022-07-29T02:28:29;101924.56;;;32.90;77.04
12991;BME280;6560;57.692;11.958;2022-07-29T02:30:58;101939.19;;;32.99;77.54
12991;BME280;6560;57.692;11.958;2022-07-29T02:33:25;101931.00;;;33.16;78.13
12991;BME280;6560;57.692;11.958;2022-07-29T02:35:52;101917.34;;;33.11;76.49
12991;BME280;6560;57.692;11.958;2022-07-29T02:38:18;101943.81;;;33.31;76.12
12991;BME280;6560;57.692;11.958;2022-07-29T02:41:08;101899.06;;;32.80;78.65
12991;BME280;6560;57.692;11.958;2022-07-29T02:43:36;101948.38;;;33.26;76.95
12991;BME280;6560;57.692;11.958;2022-07-29T02:46:04;101936.41;;;32.75;80.37
12991;BME280;6560;57.692;11.958;2022-07-29T02:48:36;101947.44;;;33.23;78.07
12991;BME280;6560;57.692;11.958;2022-07-29T02:51:15;101872.66;;;32.82;79.63
12991;BME280;6560;57.692;11.958;2022-07-29T02:53:44;101952.03;;;33.38;76.39
12991;BME280;6560;57.692;11.958;2022-07-29T02:56:16;101949.28;;;33.29;77.85
12991;BME280;6560;57.692;11.958;2022-07-29T02:58:52;101952.81;;;32.90;83.87
12991;BME280;6560;57.692;11.958;2022-07-29T03:01:21;101886.22;;;32.55;80.69
12991;BME280;6560;57.692;11.958;2022-07-29T03:03:49;101950.00;;;31.40;87.29
12991;BME280;6560;57.692;11.958;2022-07-29T03:06:17;101962.16;;;31.76;87.98
12991;BME280;6560;57.692;11.958;2022-07-29T03:08:44;101959.09;;;32.62;83.57
12991;BME280;6560;57.692;11.958;2022-07-29T03:11:11;101976.22;;;32.29;84.37
12991;BME280;6560;57.692;11.958;2022-07-29T03:13:37;101969.91;;;31.30;89.05
12991;BME280;6560;57.692;11.958;2022-07-29T03:16:05;101961.56;;;32.15;86.66
12991;BME280;6560;57.692;11.958;2022-07-29T03:18:31;101966.53;;;33.07;81.23
12991;BME280;6560;57.692;11.958;2022-07-29T03:20:57;101958.41;;;33.65;77.51
12991;BME280;6560;57.692;11.958;2022-07-29T03:23:23;101883.63;;;33.05;78.28
12991;BME280;6560;57.692;11.958;2022-07-29T03:25:51;101961.16;;;34.03;76.30
12991;BME280;6560;57.692;11.958;2022-07-29T03:28:17;101954.72;;;34.38;73.39
12991;BME280;6560;57.692;11.958;2022-07-29T03:30:42;101898.25;;;33.30;77.88
12991;BME280;6560;57.692;11.958;2022-07-29T03:33:08;101952.03;;;33.62;77.50
12991;BME280;6560;57.692;11.958;2022-07-29T03:35:33;101888.19;;;33.65;76.33
12991;BME280;6560;57.692;11.958;2022-07-29T03:37:59;101959.34;;;33.77;76.79
12991;BME280;6560;57.692;11.958;2022-07-29T03:40:32;101918.31;;;33.19;78.13
12991;BME280;6560;57.692;11.958;2022-07-29T03:43:00;101899.16;;;33.60;76.27
12991;BME280;6560;57.692;11.958;2022-07-29T03:45:28;101959.34;;;33.91;75.99
12991;BME280;6560;57.692;11.958;2022-07-29T03:48:00;101969.28;;;33.11;79.95
12991;BME280;6560;57.692;11.958;2022-07-29T03:50:27;101955.69;;;33.34;79.90
12991;BME280;6560;57.692;11.958;2022-07-29T03:52:54;101905.50;;;33.14;80.76
12991;BME280;6560;57.692;11.958;2022-07-29T03:55:19;101968.47;;;33.88;80.82
12991;BME280;6560;57.692;11.958;2022-07-29T03:57:45;101948.38;;;33.98;82.62
12991;BME280;6560;57.692;11.958;2022-07-29T04:00:12;101929.22;;;33.89;82.86
12991;BME280;6560;57.692;11.958;2022-07-29T04:02:38;101886.34;;;33.91;81.68
12991;BME280;6560;57.692;11.958;2022-07-29T04:05:04;101973.94;;;34.04;83.15
12991;BME280;6560;57.692;11.958;2022-07-29T04:07:30;101888.19;;;33.06;83.75
12991;BME280;6560;57.692;11.958;2022-07-29T04:09:55;101962.69;;;34.98;79.75
12991;BME280;6560;57.692;11.958;2022-07-29T04:12:21;101961.50;;;35.40;76.37
12991;BME280;6560;57.692;11.958;2022-07-29T04:14:46;101953.03;;;35.66;76.22
12991;BME280;6560;57.692;11.958;2022-07-29T04:17:12;101965.75;;;35.79;75.83
12991;BME280;6560;57.692;11.958;2022-07-29T04:19:37;101943.78;;;35.82;75.77
12991;BME280;6560;57.692;11.958;2022-07-29T04:22:03;101905.00;;;35.11;80.51
12991;BME280;6560;57.692;11.958;2022-07-29T04:24:29;101955.56;;;34.50;85.19
12991;BME280;6560;57.692;11.958;2022-07-29T04:26:54;101969.41;;;35.84;82.15
12991;BME280;6560;57.692;11.958;2022-07-29T04:29:20;101888.41;;;36.93;80.49
12991;BME280;6560;57.692;11.958;2022-07-29T04:31:45;101957.59;;;39.55;73.71
12991;BME280;6560;57.692;11.958;2022-07-29T04:34:11;101941.13;;;40.50;70.39
12991;BME280;6560;57.692;11.958;2022-07-29T04:36:37;101893.59;;;39.00;76.50
12991;BME280;6560;57.692;11.958;2022-07-29T04:39:04;101947.91;;;38.98;79.72
12991;BME280;6560;57.692;11.958;2022-07-29T04:41:30;101947.94;;;39.34;76.66
12991;BME280;6560;57.692;11.958;2022-07-29T04:43:56;101947.97;;;40.99;79.89
12991;BME280;6560;57.692;11.958;2022-07-29T04:46:22;101877.97;;;43.39;69.71
12991;BME280;6560;57.692;11.958;2022-07-29T04:48:47;101933.25;;;43.25;69.16
12991;BME280;6560;57.692;11.958;2022-07-29T04:51:14;101944.63;;;42.96;68.84
12991;BME280;6560;57.692;11.958;2022-07-29T04:53:40;101874.22;;;44.43;66.93
12991;BME280;6560;57.692;11.958;2022-07-29T04:56:05;101948.91;;;46.00;60.06
12991;BME280;6560;57.692;11.958;2022-07-29T04:58:31;101916.53;;;45.43;61.30
12991;BME280;6560;57.692;11.958;2022-07-29T05:00:56;101906.53;;;45.75;62.84
12991;BME280;6560;57.692;11.958;2022-07-29T05:03:22;101875.94;;;46.74;61.07
12991;BME280;6560;57.692;11.958;2022-07-29T05:05:47;101951.97;;;47.43;59.76
12991;BME280;6560;57.692;11.958;2022-07-29T05:08:13;101893.81;;;47.64;59.49
12991;BME280;6560;57.692;11.958;2022-07-29T05:10:38;101902.53;;;49.71;54.13
12991;BME280;6560;57.692;11.958;2022-07-29T05:13:07;101923.00;;;51.12;45.17
12991;BME280;6560;57.692;11.958;2022-07-29T05:15:36;101940.50;;;52.68;42.37
12991;BME280;6560;57.692;11.958;2022-07-29T05:18:02;101944.19;;;53.36;41.13
12991;BME280;6560;57.692;11.958;2022-07-29T05:20:29;101950.75;;;53.68;36.84
12991;BME280;6560;57.692;11.958;2022-07-29T05:22:58;101892.75;;;53.96;37.26
12991;BME280;6560;57.692;11.958;2022-07-29T05:25:26;101891.47;;;52.82;38.29
12991;BME280;6560;57.692;11.958;2022-07-29T05:27:52;101902.47;;;53.82;32.75
12991;BME280;6560;57.692;11.958;2022-07-29T05:30:18;101946.09;;;53.35;32.07
12991;BME280;6560;57.692;11.958;2022-07-29T05:32:44;101920.09;;;54.16;31.92
12991;BME280;6560;57.692;11.958;2022-07-29T05:35:09;101926.09;;;52.27;32.29
12991;BME280;6560;57.692;11.958;2022-07-29T05:37:35;101895.03;;;50.49;34.14
12991;BME280;6560;57.692;11.958;2022-07-29T05:40:01;101931.81;;;52.49;32.41
12991;BME280;6560;57.692;11.958;2022-07-29T05:42:26;101934.13;;;54.06;30.46
12991;BME280;6560;57.692;11.958;2022-07-29T05:44:53;101936.00;;;54.38;28.46
12991;BME280;6560;57.692;11.958;2022-07-29T05:47:19;101923.59;;;53.88;29.22
12991;BME280;6560;57.692;11.958;2022-07-29T05:49:44;101931.84;;;55.91;26.79
12991;BME280;6560;57.692;11.958;2022-07-29T05:52:11;101932.56;;;55.54;25.27
12991;BME280;6560;57.692;11.958;2022-07-29T05:54:38;101930.34;;;56.16;24.95
12991;BME280;6560;57.692;11.958;2022-07-29T05:57:04;101935.91;;;56.64;24.75
12991;BME280;6560;57.692;11.958;2022-07-29T05:59:31;101942.41;;;56.74;23.74
12991;BME280;6560;57.692;11.958;2022-07-29T06:01:57;101935.97;;;54.79;25.01
12991;BME280;6560;57.692;11.958;2022-07-29T06:04:22;101939.75;;;54.18;24.91
12991;BME280;6560;57.692;11.958;2022-07-29T06:06:48;101934.97;;;53.11;26.35
12991;BME280;6560;57.692;11.958;2022-07-29T06:09:13;101932.47;;;54.15;25.39
12991;BME280;6560;57.692;11.958;2022-07-29T06:11:39;101939.06;;;53.29;24.67
12991;BME280;6560;57.692;11.958;2022-07-29T06:14:04;101925.00;;;50.74;26.29
12991;BME280;6560;57.692;11.958;2022-07-29T06:16:30;101941.50;;;51.64;26.41
12991;BME280;6560;57.692;11.958;2022-07-29T06:18:55;101937.47;;;51.31;27.40
12991;BME280;6560;57.692;11.958;2022-07-29T06:21:21;101935.53;;;50.95;26.76
12991;BME280;6560;57.692;11.958;2022-07-29T06:23:46;101936.78;;;50.79;27.32
12991;BME280;6560;57.692;11.958;2022-07-29T06:26:12;101913.66;;;50.24;28.04
12991;BME280;6560;57.692;11.958;2022-07-29T06:28:37;101944.78;;;50.85;27.74
12991;BME280;6560;57.692;11.958;2022-07-29T06:31:03;101938.91;;;50.75;27.84
12991;BME280;6560;57.692;11.958;2022-07-29T06:33:28;101952.81;;;51.51;26.78
12991;BME280;6560;57.692;11.958;2022-07-29T06:35:54;101942.28;;;51.29;26.88
12991;BME280;6560;57.692;11.958;2022-07-29T06:38:20;101909.63;;;51.16;26.46
12991;BME280;6560;57.692;11.958;2022-07-29T06:40:46;101898.88;;;51.57;27.03
12991;BME280;6560;57.692;11.958;2022-07-29T06:43:34;101951.59;;;52.25;24.58
12991;BME280;6560;57.692;11.958;2022-07-29T06:46:05;101939.50;;;51.77;25.87
12991;BME280;6560;57.692;11.958;2022-07-29T06:48:32;101923.84;;;52.76;25.57
12991;BME280;6560;57.692;11.958;2022-07-29T06:50:58;101932.56;;;54.55;24.33
12991;BME280;6560;57.692;11.958;2022-07-29T06:53:24;101922.31;;;55.04;23.26
12991;BME280;6560;57.692;11.958;2022-07-29T06:55:50;101939.78;;;55.09;23.28
12991;BME280;6560;57.692;11.958;2022-07-29T06:58:15;101929.69;;;55.35;22.94
12991;BME280;6560;57.692;11.958;2022-07-29T07:00:41;101900.41;;;54.87;22.66
12991;BME280;6560;57.692;11.958;2022-07-29T07:03:07;101941.25;;;55.53;22.49
12991;BME280;6560;57.692;11.958;2022-07-29T07:05:32;101931.09;;;53.35;23.65
12991;BME280;6560;57.692;11.958;2022-07-29T07:07:58;101946.34;;;53.75;23.68
12991;BME280;6560;57.692;11.958;2022-07-29T07:10:23;101911.97;;;53.81;22.50
12991;BME280;6560;57.692;11.958;2022-07-29T07:12:48;101937.66;;;53.13;23.38
12991;BME280;6560;57.692;11.958;2022-07-29T07:15:14;101892.75;;;54.17;22.62
12991;BME280;6560;57.692;11.958;2022-07-29T07:17:39;101931.41;;;54.16;22.99
12991;BME280;6560;57.692;11.958;2022-07-29T07:20:05;101952.38;;;53.82;22.91
12991;BME280;6560;57.692;11.958;2022-07-29T07:22:31;101951.00;;;53.22;23.00
12991;BME280;6560;57.692;11.958;2022-07-29T07:24:57;101946.59;;;51.59;24.67
12991;BME280;6560;57.692;11.958;2022-07-29T07:27:22;101926.28;;;53.14;22.93
12991;BME280;6560;57.692;11.958;2022-07-29T07:29:48;101950.16;;;51.61;24.18
12991;BME280;6560;57.692;11.958;2022-07-29T07:32:13;101944.47;;;51.26;25.00
12991;BME280;6560;57.692;11.958;2022-07-29T07:34:41;101944.59;;;52.53;24.21
12991;BME280;6560;57.692;11.958;2022-07-29T07:37:07;101955.16;;;52.16;22.95
12991;BME280;6560;57.692;11.958;2022-07-29T07:39:33;101958.06;;;52.94;23.30
12991;BME280;6560;57.692;11.958;2022-07-29T07:41:59;101948.06;;;51.75;24.07
12991;BME280;6560;57.692;11.958;2022-07-29T07:44:24;101946.28;;;52.09;23.67
12991;BME280;6560;57.692;11.958;2022-07-29T07:46:50;101956.56;;;52.90;23.23
12991;BME280;6560;57.692;11.958;2022-07-29T07:49:15;101951.06;;;52.20;23.44
12991;BME280;6560;57.692;11.958;2022-07-29T07:51:41;101929.19;;;52.35;24.01
12991;BME280;6560;57.692;11.958;2022-07-29T07:54:06;101921.84;;;52.10;23.65
12991;BME280;6560;57.692;11.958;2022-07-29T07:56:32;101950.72;;;52.47;23.40
12991;BME280;6560;57.692;11.958;2022-07-29T07:58:57;101942.91;;;51.69;22.91
12991;BME280;6560;57.692;11.958;2022-07-29T08:01:24;101932.28;;;52.43;22.53
12991;BME280;6560;57.692;11.958;2022-07-29T08:03:49;101944.88;;;52.04;23.11
12991;BME280;6560;57.692;11.958;2022-07-29T08:06:15;101955.25;;;52.94;22.72
12991;BME280;6560;57.692;11.958;2022-07-29T08:08:41;101950.66;;;53.58;22.80
12991;BME280;6560;57.692;11.958;2022-07-29T08:11:06;101956.28;;;53.04;22.95
12991;BME280;6560;57.692;11.958;2022-07-29T08:13:32;101955.16;;;52.16;23.79
12991;BME280;6560;57.692;11.958;2022-07-29T08:15:58;101942.28;;;50.93;24.26
12991;BME280;6560;57.692;11.958;2022-07-29T08:18:26;101942.88;;;52.17;23.64
12991;BME280;6560;57.692;11.958;2022-07-29T08:20:51;101951.19;;;51.84;23.25
12991;BME280;6560;57.692;11.958;2022-07-29T08:23:17;101949.06;;;51.27;24.36
12991;BME280;6560;57.692;11.958;2022-07-29T08:25:44;101955.69;;;52.32;24.27
12991;BME280;6560;57.692;11.958;2022-07-29T08:28:09;101954.53;;;51.89;25.22
12991;BME280;6560;57.692;11.958;2022-07-29T08:30:35;101948.81;;;52.12;24.49
12991;BME280;6560;57.692;11.958;2022-07-29T08:33:00;101948.28;;;52.42;24.52
12991;BME280;6560;57.692;11.958;2022-07-29T08:35:27;101948.50;;;53.40;23.97
12991;BME280;6560;57.692;11.958;2022-07-29T08:37:52;101928.25;;;53.57;23.02
12991;BME280;6560;57.692;11.958;2022-07-29T08:40:19;101949.81;;;52.35;23.42
12991;BME280;6560;57.692;11.958;2022-07-29T08:42:45;101922.78;;;52.33;23.89
12991;BME280;6560;57.692;11.958;2022-07-29T08:45:11;101949.97;;;52.45;23.67
12991;BME280;6560;57.692;11.958;2022-07-29T08:47:38;101950.66;;;53.04;23.78
12991;BME280;6560;57.692;11.958;2022-07-29T08:50:08;101956.34;;;52.01;24.14
12991;BME280;6560;57.692;11.958;2022-07-29T08:52:36;101932.78;;;51.91;24.49
12991;BME280;6560;57.692;11.958;2022-07-29T08:55:03;101959.47;;;50.76;25.90
12991;BME280;6560;57.692;11.958;2022-07-29T08:57:29;101963.91;;;50.67;26.07
12991;BME280;6560;57.692;11.958;2022-07-29T08:59:57;101954.16;;;49.95;27.45
12991;BME280;6560;57.692;11.958;2022-07-29T09:02:27;101945.44;;;50.38;26.97
12991;BME280;6560;57.692;11.958;2022-07-29T09:04:53;101945.91;;;50.57;26.71
12991;BME280;6560;57.692;11.958;2022-07-29T09:07:19;101954.31;;;50.32;26.36
12991;BME280;6560;57.692;11.958;2022-07-29T09:09:45;101964.03;;;50.01;27.29
12991;BME280;6560;57.692;11.958;2022-07-29T09:12:11;101912.81;;;49.58;26.82
12991;BME280;6560;57.692;11.958;2022-07-29T09:14:39;101946.19;;;49.62;27.17
12991;BME280;6560;57.692;11.958;2022-07-29T09:17:05;101944.25;;;50.54;26.34
12991;BME280;6560;57.692;11.958;2022-07-29T09:19:34;101958.53;;;50.12;26.56
12991;BME280;6560;57.692;11.958;2022-07-29T09:22:03;101946.19;;;49.07;27.74
12991;BME280;6560;57.692;11.958;2022-07-29T09:24:41;101956.22;;;50.44;26.36
12991;BME280;6560;57.692;11.958;2022-07-29T09:27:24;101959.06;;;49.65;27.94
12991;BME280;6560;57.692;11.958;2022-07-29T09:30:05;101900.44;;;49.21;28.26
12991;BME280;6560;57.692;11.958;2022-07-29T09:32:32;101953.63;;;49.76;27.28
12991;BME280;6560;57.692;11.958;2022-07-29T09:35:15;101885.91;;;49.55;27.44
12991;BME280;6560;57.692;11.958;2022-07-29T09:37:41;101965.25;;;50.09;26.41
12991;BME280;6560;57.692;11.958;2022-07-29T09:40:12;101975.03;;;48.66;28.28
12991;BME280;6560;57.692;11.958;2022-07-29T09:42:38;101935.81;;;48.52;28.95
12991;BME280;6560;57.692;11.958;2022-07-29T09:45:04;101940.63;;;48.06;29.05
12991;BME280;6560;57.692;11.958;2022-07-29T09:47:46;101974.94;;;47.94;29.24
12991;BME280;6560;57.692;11.958;2022-07-29T09:50:14;101971.88;;;48.28;28.71
12991;BME280;6560;57.692;11.958;2022-07-29T09:52:52;101952.56;;;47.94;28.74
12991;BME280;6560;57.692;11.958;2022-07-29T09:55:18;101951.97;;;48.33;28.45
12991;BME280;6560;57.692;11.958;2022-07-29T09:57:45;101928.91;;;46.60;29.76
12991;BME280;6560;57.692;11.958;2022-07-29T10:00:13;101930.69;;;45.93;31.32
12991;BME280;6560;57.692;11.958;2022-07-29T10:02:41;101929.59;;;46.30;30.93
12991;BME280;6560;57.692;11.958;2022-07-29T10:05:22;101937.44;;;45.53;32.25
12991;BME280;6560;57.692;11.958;2022-07-29T10:07:52;101959.03;;;46.36;31.32
12991;BME280;6560;57.692;11.958;2022-07-29T10:10:21;101957.97;;;46.38;31.63
12991;BME280;6560;57.692;11.958;2022-07-29T10:12:57;101936.19;;;45.95;32.04
12991;BME280;6560;57.692;11.958;2022-07-29T10:15:24;101922.16;;;45.06;33.16
12991;BME280;6560;57.692;11.958;2022-07-29T10:17:51;101926.84;;;45.24;32.77
12991;BME280;6560;57.692;11.958;2022-07-29T10:20:17;101942.44;;;46.50;30.98
12991;BME280;6560;57.692;11.958;2022-07-29T10:22:43;101944.31;;;45.46;32.39
12991;BME280;6560;57.692;11.958;2022-07-29T10:25:10;101941.72;;;45.04;32.58
12991;BME280;6560;57.692;11.958;2022-07-29T10:27:36;101954.13;;;45.89;31.58
12991;BME280;6560;57.692;11.958;2022-07-29T10:30:05;101952.22;;;45.73;31.57
12991;BME280;6560;57.692;11.958;2022-07-29T10:43:42;101947.50;;;45.92;30.56
12991;BME280;6560;57.692;11.958;2022-07-29T10:46:10;101939.16;;;45.37;31.51
12991;BME280;6560;57.692;11.958;2022-07-29T10:51:53;101940.50;;;44.13;32.89
12991;BME280;6560;57.692;11.958;2022-07-29T10:57:33;101931.22;;;44.34;32.17
12991;BME280;6560;57.692;11.958;2022-07-29T11:07:32;101941.25;;;43.76;33.81
12991;BME280;6560;57.692;11.958;2022-07-29T11:20:34;101934.53;;;44.22;33.20
12991;BME280;6560;57.692;11.958;2022-07-29T11:23:00;101928.59;;;43.69;33.27
12991;BME280;6560;57.692;11.958;2022-07-29T11:25:26;101938.13;;;43.84;32.03
12991;BME280;6560;57.692;11.958;2022-07-29T11:28:09;101942.03;;;42.91;33.68
12991;BME280;6560;57.692;11.958;2022-07-29T11:30:52;101928.81;;;42.74;35.21
12991;BME280;6560;57.692;11.958;2022-07-29T11:33:32;101928.38;;;44.75;32.94
12991;BME280;6560;57.692;11.958;2022-07-29T11:36:11;101934.75;;;43.10;35.59
12991;BME280;6560;57.692;11.958;2022-07-29T11:38:37;101936.63;;;43.97;34.89
12991;BME280;6560;57.692;11.958;2022-07-29T11:41:25;101933.75;;;44.39;33.63
12991;BME280;6560;57.692;11.958;2022-07-29T11:43:56;101937.94;;;45.07;32.45
12991;BME280;6560;57.692;11.958;2022-07-29T11:46:44;101933.06;;;43.93;34.28
12991;BME280;6560;57.692;11.958;2022-07-29T11:49:22;101940.47;;;42.11;37.16
12991;BME280;6560;57.692;11.958;2022-07-29T11:51:57;101934.53;;;42.46;36.95
12991;BME280;6560;57.692;11.958;2022-07-29T11:54:35;101925.56;;;43.53;34.03
12991;BME280;6560;57.692;11.958;2022-07-29T11:57:02;101933.38;;;43.44;32.92
12991;BME280;6560;57.692;11.958;2022-07-29T11:59:28;101909.59;;;42.68;34.55
12991;BME280;6560;57.692;11.958;2022-07-29T12:01:58;101910.88;;;43.06;34.63
12991;BME280;6560;57.692;11.958;2022-07-29T12:04:23;101928.66;;;44.88;32.13
12991;BME280;6560;57.692;11.958;2022-07-29T12:06:56;101922.00;;;45.63;31.31
12991;BME280;6560;57.692;11.958;2022-07-29T12:09:23;101918.84;;;44.98;30.96
12991;BME280;6560;57.692;11.958;2022-07-29T12:11:49;101901.09;;;45.19;30.14
12991;BME280;6560;57.692;11.958;2022-07-29T12:14:32;101897.09;;;46.12;29.75
12991;BME280;6560;57.692;11.958;2022-07-29T12:16:59;101897.03;;;46.14;29.57
12991;BME280;6560;57.692;11.958;2022-07-29T12:19:28;101889.41;;;46.00;29.24
12991;BME280;6560;57.692;11.958;2022-07-29T12:21:55;101912.19;;;44.83;30.21
12991;BME280;6560;57.692;11.958;2022-07-29T12:24:23;101896.09;;;45.08;30.08
12991;BME280;6560;57.692;11.958;2022-07-29T12:26:56;101898.03;;;43.89;30.59
12991;BME280;6560;57.692;11.958;2022-07-29T12:29:22;101911.03;;;45.06;29.10
12991;BME280;6560;57.692;11.958;2022-07-29T12:31:52;101897.78;;;43.53;29.27
12991;BME280;6560;57.692;11.958;2022-07-29T12:34:20;101917.03;;;43.58;30.58
12991;BME280;6560;57.692;11.958;2022-07-29T12:36:48;101913.22;;;42.70;31.58
12991;BME280;6560;57.692;11.958;2022-07-29T12:39:15;101908.53;;;42.96;30.87
12991;BME280;6560;57.692;11.958;2022-07-29T12:41:41;101891.72;;;42.53;30.50
12991;BME280;6560;57.692;11.958;2022-07-29T12:44:07;101904.31;;;42.14;31.14
12991;BME280;6560;57.692;11.958;2022-07-29T12:46:32;101896.41;;;42.98;31.42
12991;BME280;6560;57.692;11.958;2022-07-29T12:48:58;101915.69;;;42.79;31.01
12991;BME280;6560;57.692;11.958;2022-07-29T12:54:08;101912.50;;;44.77;29.41
12991;BME280;6560;57.692;11.958;2022-07-29T12:56:38;101910.34;;;42.97;31.37
12991;BME280;6560;57.692;11.958;2022-07-29T12:59:21;101908.72;;;43.78;30.46
12991;BME280;6560;57.692;11.958;2022-07-29T13:01:48;101898.63;;;43.97;29.73
12991;BME280;6560;57.692;11.958;2022-07-29T13:04:30;101904.59;;;44.47;28.95
12991;BME280;6560;57.692;11.958;2022-07-29T13:07:06;101906.06;;;44.56;29.99
12991;BME280;6560;57.692;11.958;2022-07-29T13:09:40;101903.91;;;43.82;30.23
12991;BME280;6560;57.692;11.958;2022-07-29T13:12:10;101901.09;;;44.24;29.66
12991;BME280;6560;57.692;11.958;2022-07-29T13:14:45;101871.63;;;43.37;29.76
12991;BME280;6560;57.692;11.958;2022-07-29T13:17:19;101902.44;;;43.73;29.48
12991;BME280;6560;57.692;11.958;2022-07-29T13:19:48;101893.38;;;44.10;28.74
12991;BME280;6560;57.692;11.958;2022-07-29T13:22:21;101897.19;;;44.28;28.83
12991;BME280;6560;57.692;11.958;2022-07-29T13:24:54;101873.09;;;44.47;28.79
12991;BME280;6560;57.692;11.958;2022-07-29T13:27:26;101892.56;;;45.41;27.36
12991;BME280;6560;57.692;11.958;2022-07-29T13:29:52;101879.19;;;44.16;28.08
12991;BME280;6560;57.692;11.958;2022-07-29T13:32:22;101887.44;;;44.38;28.20
12991;BME280;6560;57.692;11.958;2022-07-29T13:34:47;101893.22;;;44.13;28.94
12991;BME280;6560;57.692;11.958;2022-07-29T13:37:13;101889.81;;;44.06;29.33
12991;BME280;6560;57.692;11.958;2022-07-29T13:39:39;101885.50;;;43.79;29.67
12991;BME280;6560;57.692;11.958;2022-07-29T13:42:06;101889.38;;;44.94;28.66
12991;BME280;6560;57.692;11.958;2022-07-29T13:44:32;101865.06;;;44.78;28.56